createdAt,value
2019-03-10T00:00:56.215Z,890.62
2019-03-10T00:01:56.200Z,890.60
2019-03-10T00:02:56.184Z,890.54
2019-03-10T00:03:56.174Z,890.62
2019-03-10T00:04:56.150Z,890.65
2019-03-10T00:05:56.143Z,890.71
2019-03-10T00:06:56.121Z,890.73
2019-03-10T00:07:56.104Z,890.79
2019-03-10T00:08:56.089Z,890.81
2019-03-10T00:09:56.074Z,890.83
2019-03-10T00:10:56.059Z,890.75
2019-03-10T00:11:56.045Z,890.75
2019-03-10T00:12:56.032Z,890.75
2019-03-10T00:13:56.011Z,890.72
2019-03-10T00:14:56.005Z,890.71
2019-03-10T00:15:55.993Z,890.67
2019-03-10T00:16:55.967Z,890.66
2019-03-10T00:17:55.955Z,890.63
2019-03-10T00:18:55.937Z,890.67
2019-03-10T00:19:55.922Z,890.65
2019-03-10T00:20:55.914Z,890.61
2019-03-10T00:21:55.891Z,890.62
2019-03-10T00:22:55.875Z,890.64
2019-03-10T00:23:55.860Z,890.60
2019-03-10T00:24:55.842Z,890.60
2019-03-10T00:25:55.826Z,890.54
2019-03-10T00:26:55.819Z,890.54
2019-03-10T00:27:55.795Z,890.45
2019-03-10T00:28:55.782Z,890.48
2019-03-10T00:29:55.767Z,890.47
2019-03-10T00:30:55.753Z,890.48
2019-03-10T00:31:55.732Z,890.45
2019-03-10T00:32:55.715Z,890.50
2019-03-10T00:33:55.703Z,890.49
2019-03-10T00:34:55.748Z,890.52
2019-03-10T00:35:55.670Z,890.44
2019-03-10T00:36:55.658Z,890.44
2019-03-10T00:37:55.644Z,890.42
2019-03-10T00:38:55.622Z,890.37
2019-03-10T00:39:55.613Z,890.39
2019-03-10T00:40:55.594Z,890.34
2019-03-10T00:41:55.592Z,890.33
2019-03-10T00:42:55.563Z,890.35
2019-03-10T00:43:55.543Z,890.36
2019-03-10T00:44:55.536Z,890.32
2019-03-10T00:45:55.519Z,890.29
2019-03-10T00:46:55.508Z,890.25
2019-03-10T00:47:55.488Z,890.22
2019-03-10T00:48:55.475Z,890.17
2019-03-10T00:49:55.458Z,890.21
2019-03-10T00:50:55.438Z,890.17
2019-03-10T00:51:55.422Z,890.15
2019-03-10T00:52:55.409Z,890.11
2019-03-10T00:53:55.399Z,890.08
2019-03-10T00:54:55.376Z,890.08
2019-03-10T00:55:55.360Z,890.05
2019-03-10T00:56:55.344Z,890.10
2019-03-10T00:57:55.331Z,890.06
2019-03-10T00:58:55.322Z,890.10
2019-03-10T00:59:55.299Z,890.10
2019-03-10T01:00:55.354Z,890.10
2019-03-10T01:01:55.267Z,890.06
2019-03-10T01:02:55.251Z,890.06
2019-03-10T01:03:55.235Z,889.98
2019-03-10T01:04:55.223Z,889.98
2019-03-10T01:05:55.203Z,889.97
2019-03-10T01:06:55.199Z,890.00
2019-03-10T01:07:55.170Z,890.04
2019-03-10T01:08:55.156Z,890.03
2019-03-10T01:09:55.138Z,889.99
2019-03-10T01:10:55.126Z,890.01
2019-03-10T01:11:55.109Z,889.96
2019-03-10T01:12:55.095Z,889.89
2019-03-10T01:13:55.081Z,889.88
2019-03-10T01:14:55.062Z,889.83
2019-03-10T01:15:55.052Z,889.79
2019-03-10T01:16:55.050Z,889.75
2019-03-10T01:17:55.012Z,889.71
2019-03-10T01:18:55.000Z,889.66
2019-03-10T01:19:54.984Z,889.61
2019-03-10T01:20:55.014Z,889.56
2019-03-10T01:21:54.951Z,889.56
2019-03-10T01:22:54.937Z,889.57
2019-03-10T01:23:54.924Z,889.58
2019-03-10T01:24:54.903Z,889.56
2019-03-10T01:25:54.892Z,889.58
2019-03-10T01:26:54.870Z,889.55
2019-03-10T01:27:54.861Z,889.55
2019-03-10T01:28:54.841Z,889.58
2019-03-10T01:29:54.825Z,889.50
2019-03-10T01:30:54.810Z,889.52
2019-03-10T01:31:54.795Z,889.48
2019-03-10T01:32:54.776Z,889.45
2019-03-10T01:33:54.758Z,889.48
2019-03-10T01:34:54.749Z,889.47
2019-03-10T01:35:54.730Z,889.50
2019-03-10T01:36:54.714Z,889.49
2019-03-10T01:37:54.696Z,889.47
2019-03-10T01:38:54.681Z,889.45
2019-03-10T01:39:54.669Z,889.39
2019-03-10T01:40:54.653Z,889.42
2019-03-10T01:41:54.631Z,889.34
2019-03-10T01:42:54.620Z,889.29
2019-03-10T01:43:54.606Z,889.27
2019-03-10T01:44:54.586Z,889.25
2019-03-10T01:45:54.577Z,889.23
2019-03-10T01:46:54.561Z,889.22
2019-03-10T01:47:54.539Z,889.16
2019-03-10T01:48:54.525Z,889.18
2019-03-10T01:49:54.513Z,889.10
2019-03-10T01:50:54.496Z,889.05
2019-03-10T01:51:54.479Z,889.06
2019-03-10T01:52:54.461Z,889.03
2019-03-10T01:53:54.447Z,889.03
2019-03-10T01:54:54.430Z,888.97
2019-03-10T01:55:54.414Z,888.93
2019-03-10T01:56:54.398Z,888.89
2019-03-10T01:57:54.386Z,888.91
2019-03-10T01:58:54.370Z,888.94
2019-03-10T01:59:54.350Z,888.93
2019-03-10T02:00:54.335Z,888.80
2019-03-10T02:01:54.320Z,888.76
2019-03-10T02:02:54.303Z,888.76
2019-03-10T02:03:54.291Z,888.79
2019-03-10T02:04:54.279Z,888.75
2019-03-10T02:05:54.257Z,888.59
2019-03-10T02:06:54.246Z,888.54
2019-03-10T02:07:54.231Z,888.57
2019-03-10T02:08:54.213Z,888.59
2019-03-10T02:09:54.191Z,888.51
2019-03-10T02:10:54.170Z,888.43
2019-03-10T02:11:54.159Z,888.41
2019-03-10T02:12:54.142Z,888.49
2019-03-10T02:13:54.134Z,888.46
2019-03-10T02:14:54.315Z,888.41
2019-03-10T02:15:54.098Z,888.40
2019-03-10T02:16:54.081Z,888.42
2019-03-10T02:17:54.067Z,888.37
2019-03-10T02:18:54.050Z,888.41
2019-03-10T02:19:54.030Z,888.40
2019-03-10T02:20:54.018Z,888.42
2019-03-10T02:21:53.998Z,888.35
2019-03-10T02:22:53.986Z,888.34
2019-03-10T02:23:53.967Z,888.32
2019-03-10T02:24:53.954Z,888.25
2019-03-10T02:25:53.934Z,888.25
2019-03-10T02:26:53.926Z,888.20
2019-03-10T02:27:53.907Z,888.15
2019-03-10T02:28:53.889Z,888.17
2019-03-10T02:29:53.873Z,888.14
2019-03-10T02:30:53.858Z,888.10
2019-03-10T02:31:53.843Z,888.12
2019-03-10T02:32:53.832Z,888.07
2019-03-10T02:33:53.809Z,888.03
2019-03-10T02:34:53.792Z,887.96
2019-03-10T02:35:53.786Z,887.93
2019-03-10T02:36:53.765Z,888.00
2019-03-10T02:37:53.746Z,887.97
2019-03-10T02:38:53.729Z,887.98
2019-03-10T02:39:53.725Z,887.99
2019-03-10T02:40:53.704Z,887.98
2019-03-10T02:41:53.680Z,888.01
2019-03-10T02:42:53.671Z,888.01
2019-03-10T02:43:53.652Z,888.01
2019-03-10T02:44:53.634Z,888.03
2019-03-10T02:45:53.630Z,888.00
2019-03-10T02:46:53.602Z,887.98
2019-03-10T02:47:53.603Z,887.97
2019-03-10T02:48:53.569Z,887.95
2019-03-10T02:49:53.552Z,887.89
2019-03-10T02:50:53.544Z,887.89
2019-03-10T02:51:53.530Z,887.98
2019-03-10T02:52:53.504Z,887.93
2019-03-10T02:53:53.500Z,887.84
2019-03-10T02:54:53.481Z,887.79
2019-03-10T02:55:53.461Z,887.83
2019-03-10T02:56:53.449Z,887.81
2019-03-10T02:57:53.434Z,887.84
2019-03-10T02:58:53.413Z,887.80
2019-03-10T02:59:53.395Z,887.75
2019-03-10T03:00:53.380Z,887.71
2019-03-10T03:01:53.362Z,887.73
2019-03-10T03:02:53.347Z,887.77
2019-03-10T03:03:53.332Z,887.79
2019-03-10T03:04:53.320Z,887.82
2019-03-10T03:05:53.306Z,887.78
2019-03-10T03:06:53.292Z,887.73
2019-03-10T03:07:53.268Z,887.68
2019-03-10T03:08:53.263Z,887.69
2019-03-10T03:09:53.241Z,887.64
2019-03-10T03:10:53.235Z,887.59
2019-03-10T03:11:53.207Z,887.59
2019-03-10T03:12:53.194Z,887.60
2019-03-10T03:13:53.170Z,887.54
2019-03-10T03:14:53.157Z,887.57
2019-03-10T03:15:53.143Z,887.53
2019-03-10T03:16:53.127Z,887.53
2019-03-10T03:17:53.112Z,887.55
2019-03-10T03:18:53.096Z,887.54
2019-03-10T03:19:53.081Z,887.48
2019-03-10T03:20:53.070Z,887.50
2019-03-10T03:21:53.075Z,887.53
2019-03-10T03:22:53.034Z,887.51
2019-03-10T03:23:53.021Z,887.46
2019-03-10T03:24:53.003Z,887.45
2019-03-10T03:25:52.984Z,887.47
2019-03-10T03:26:52.974Z,887.44
2019-03-10T03:27:52.953Z,887.48
2019-03-10T03:28:52.945Z,887.41
2019-03-10T03:29:52.924Z,887.41
2019-03-10T03:30:52.905Z,887.39
2019-03-10T03:31:52.954Z,887.40
2019-03-10T03:32:52.875Z,887.44
2019-03-10T03:33:52.991Z,887.41
2019-03-10T03:34:52.840Z,887.46
2019-03-10T03:35:52.827Z,887.47
2019-03-10T03:36:52.813Z,887.37
2019-03-10T03:37:52.797Z,887.32
2019-03-10T03:38:52.779Z,887.35
2019-03-10T03:39:52.880Z,887.30
2019-03-10T03:40:52.746Z,887.24
2019-03-10T03:41:52.730Z,887.18
2019-03-10T03:42:52.717Z,887.17
2019-03-10T03:43:52.699Z,887.22
2019-03-10T03:44:52.688Z,887.22
2019-03-10T03:45:52.669Z,887.26
2019-03-10T03:46:52.650Z,887.27
2019-03-10T03:47:52.635Z,887.29
2019-03-10T03:48:52.619Z,887.26
2019-03-10T03:49:52.608Z,887.31
2019-03-10T03:50:52.590Z,887.27
2019-03-10T03:51:52.571Z,887.28
2019-03-10T03:52:52.560Z,887.20
2019-03-10T03:53:52.544Z,887.21
2019-03-10T03:54:52.527Z,887.20
2019-03-10T03:55:52.509Z,887.20
2019-03-10T03:56:52.499Z,887.20
2019-03-10T03:57:52.488Z,887.21
2019-03-10T03:58:52.495Z,887.16
2019-03-10T03:59:52.442Z,887.19
2019-03-10T04:00:52.434Z,887.15
2019-03-10T04:01:52.417Z,887.12
2019-03-10T04:02:52.414Z,887.08
2019-03-10T04:03:52.392Z,887.05
2019-03-10T04:04:52.359Z,887.10
2019-03-10T04:05:52.359Z,887.09
2019-03-10T04:06:52.335Z,887.16
2019-03-10T04:07:52.320Z,887.14
2019-03-10T04:08:52.299Z,887.16
2019-03-10T04:09:52.281Z,887.14
2019-03-10T04:10:52.267Z,887.11
2019-03-10T04:11:52.253Z,887.10
2019-03-10T04:12:52.239Z,887.12
2019-03-10T04:13:52.219Z,887.12
2019-03-10T04:14:52.205Z,887.10
2019-03-10T04:15:52.191Z,887.11
2019-03-10T04:16:52.175Z,887.15
2019-03-10T04:17:52.159Z,887.13
2019-03-10T04:18:52.155Z,887.13
2019-03-10T04:19:52.130Z,887.21
2019-03-10T04:20:52.116Z,887.23
2019-03-10T04:21:52.095Z,887.27
2019-03-10T04:22:52.079Z,887.27
2019-03-10T04:23:52.062Z,887.23
2019-03-10T04:24:52.050Z,887.12
2019-03-10T04:25:52.034Z,887.08
2019-03-10T04:26:52.016Z,887.05
2019-03-10T04:27:52.000Z,887.00
2019-03-10T04:28:51.984Z,886.99
2019-03-10T04:29:51.974Z,886.97
2019-03-10T04:30:51.955Z,886.98
2019-03-10T04:31:51.940Z,886.97
2019-03-10T04:32:51.925Z,886.94
2019-03-10T04:33:51.909Z,886.90
2019-03-10T04:34:51.887Z,886.87
2019-03-10T04:35:51.873Z,886.84
2019-03-10T04:36:51.962Z,886.85
2019-03-10T04:37:51.843Z,886.83
2019-03-10T04:38:51.827Z,886.86
2019-03-10T04:39:51.815Z,886.82
2019-03-10T04:40:51.798Z,886.85
2019-03-10T04:41:51.786Z,886.84
2019-03-10T04:42:51.762Z,886.81
2019-03-10T04:43:51.742Z,886.83
2019-03-10T04:44:51.734Z,886.84
2019-03-10T04:45:51.722Z,886.82
2019-03-10T04:46:51.699Z,886.81
2019-03-10T04:47:51.695Z,886.82
2019-03-10T04:48:51.671Z,886.83
2019-03-10T04:49:51.647Z,886.85
2019-03-10T04:50:51.634Z,886.84
2019-03-10T04:51:51.621Z,886.81
2019-03-10T04:52:51.604Z,886.81
2019-03-10T04:53:51.590Z,886.74
2019-03-10T04:54:51.573Z,886.75
2019-03-10T04:55:51.561Z,886.74
2019-03-10T04:56:51.573Z,886.76
2019-03-10T04:57:51.526Z,886.80
2019-03-10T04:58:51.507Z,886.79
2019-03-10T04:59:51.494Z,886.79
2019-03-10T05:00:51.479Z,886.82
2019-03-10T05:01:51.460Z,886.79
2019-03-10T05:02:51.442Z,886.84
2019-03-10T05:03:51.423Z,886.84
2019-03-10T05:04:51.411Z,886.82
2019-03-10T05:05:51.398Z,886.88
2019-03-10T05:06:51.380Z,886.91
2019-03-10T05:07:51.371Z,886.87
2019-03-10T05:08:51.350Z,886.85
2019-03-10T05:09:51.339Z,886.83
2019-03-10T05:10:51.319Z,886.80
2019-03-10T05:11:51.300Z,886.79
2019-03-10T05:12:51.289Z,886.80
2019-03-10T05:13:51.272Z,886.79
2019-03-10T05:14:51.258Z,886.78
2019-03-10T05:15:51.241Z,886.78
2019-03-10T05:16:51.225Z,886.77
2019-03-10T05:17:51.208Z,886.78
2019-03-10T05:18:51.192Z,886.81
2019-03-10T05:19:51.176Z,886.81
2019-03-10T05:20:51.158Z,886.84
2019-03-10T05:21:51.144Z,886.83
2019-03-10T05:22:51.131Z,886.86
2019-03-10T05:23:51.113Z,886.86
2019-03-10T05:24:51.091Z,886.83
2019-03-10T05:25:51.091Z,886.83
2019-03-10T05:26:51.064Z,886.89
2019-03-10T05:27:51.049Z,886.89
2019-03-10T05:28:51.034Z,886.95
2019-03-10T05:29:51.014Z,887.01
2019-03-10T05:30:51.007Z,887.00
2019-03-10T05:31:50.991Z,887.03
2019-03-10T05:32:50.973Z,887.00
2019-03-10T05:33:50.961Z,887.04
2019-03-10T05:34:50.948Z,887.05
2019-03-10T05:35:50.923Z,887.06
2019-03-10T05:36:50.918Z,887.06
2019-03-10T05:37:50.896Z,887.08
2019-03-10T05:38:50.874Z,887.11
2019-03-10T05:39:50.860Z,887.17
2019-03-10T05:40:50.846Z,887.22
2019-03-10T05:41:50.832Z,887.19
2019-03-10T05:42:50.814Z,887.18
2019-03-10T05:43:50.798Z,887.21
2019-03-10T05:44:50.790Z,887.22
2019-03-10T05:45:50.768Z,887.20
2019-03-10T05:46:50.749Z,887.26
2019-03-10T05:47:50.730Z,887.22
2019-03-10T05:48:50.716Z,887.25
2019-03-10T05:49:50.703Z,887.28
2019-03-10T05:50:50.691Z,887.36
2019-03-10T05:51:50.671Z,887.39
2019-03-10T05:52:50.655Z,887.40
2019-03-10T05:53:50.643Z,887.39
2019-03-10T05:54:50.620Z,887.41
2019-03-10T05:55:50.610Z,887.44
2019-03-10T05:56:50.593Z,887.47
2019-03-10T05:57:50.574Z,887.48
2019-03-10T05:58:50.559Z,887.54
2019-03-10T05:59:50.543Z,887.58
2019-03-10T06:00:50.531Z,887.59
2019-03-10T06:01:50.509Z,887.59
2019-03-10T06:02:50.505Z,887.59
2019-03-10T06:03:50.481Z,887.61
2019-03-10T06:04:50.465Z,887.57
2019-03-10T06:05:50.452Z,887.63
2019-03-10T06:06:50.431Z,887.68
2019-03-10T06:07:50.424Z,887.67
2019-03-10T06:08:50.402Z,887.68
2019-03-10T06:09:50.385Z,887.66
2019-03-10T06:10:50.373Z,887.67
2019-03-10T06:11:50.353Z,887.73
2019-03-10T06:12:50.336Z,887.72
2019-03-10T06:13:50.334Z,887.79
2019-03-10T06:14:50.302Z,887.77
2019-03-10T06:15:50.286Z,887.77
2019-03-10T06:16:50.274Z,887.72
2019-03-10T06:17:50.277Z,887.65
2019-03-10T06:18:50.244Z,887.67
2019-03-10T06:19:50.222Z,887.67
2019-03-10T06:20:50.210Z,887.66
2019-03-10T06:21:50.206Z,887.69
2019-03-10T06:22:50.178Z,887.67
2019-03-10T06:23:50.162Z,887.69
2019-03-10T06:24:50.149Z,887.66
2019-03-10T06:25:50.134Z,887.61
2019-03-10T06:26:50.118Z,887.61
2019-03-10T06:27:50.099Z,887.56
2019-03-10T06:28:50.937Z,887.57
2019-03-10T06:29:50.069Z,887.55
2019-03-10T06:30:50.052Z,887.44
2019-03-10T06:31:50.039Z,887.44
2019-03-10T06:32:50.022Z,887.39
2019-03-10T06:33:50.006Z,887.42
2019-03-10T06:34:49.987Z,887.44
2019-03-10T06:35:49.973Z,887.42
2019-03-10T06:36:49.962Z,887.37
2019-03-10T06:37:49.944Z,887.31
2019-03-10T06:38:49.923Z,887.23
2019-03-10T06:39:49.913Z,887.17
2019-03-10T06:40:49.888Z,887.11
2019-03-10T06:41:49.875Z,887.04
2019-03-10T06:42:49.860Z,887.06
2019-03-10T06:43:49.864Z,887.04
2019-03-10T06:44:49.828Z,887.04
2019-03-10T06:45:49.812Z,887.03
2019-03-10T06:46:49.799Z,887.06
2019-03-10T06:47:49.780Z,887.07
2019-03-10T06:48:49.766Z,887.05
2019-03-10T06:49:49.756Z,887.01
2019-03-10T06:50:49.749Z,887.00
2019-03-10T06:51:49.721Z,886.98
2019-03-10T06:52:49.700Z,886.95
2019-03-10T06:53:49.689Z,886.97
2019-03-10T06:54:49.669Z,886.96
2019-03-10T06:55:49.654Z,886.88
2019-03-10T06:56:49.633Z,886.88
2019-03-10T06:57:49.621Z,886.83
2019-03-10T06:58:49.609Z,886.77
2019-03-10T06:59:50.140Z,886.76
2019-03-10T07:00:49.572Z,886.73
2019-03-10T07:01:49.566Z,886.65
2019-03-10T07:02:49.540Z,886.65
2019-03-10T07:03:49.530Z,886.65
2019-03-10T07:04:49.505Z,886.65
2019-03-10T07:05:49.497Z,886.58
2019-03-10T07:06:49.474Z,886.60
2019-03-10T07:07:49.455Z,886.54
2019-03-10T07:08:49.444Z,886.50
2019-03-10T07:09:49.428Z,886.49
2019-03-10T07:10:49.417Z,886.46
2019-03-10T07:11:49.396Z,886.45
2019-03-10T07:12:49.379Z,886.43
2019-03-10T07:13:49.362Z,886.43
2019-03-10T07:14:49.342Z,886.38
2019-03-10T07:15:49.332Z,886.42
2019-03-10T07:16:49.311Z,886.40
2019-03-10T07:17:49.296Z,886.39
2019-03-10T07:18:49.283Z,886.40
2019-03-10T07:19:49.267Z,886.31
2019-03-10T07:20:49.249Z,886.30
2019-03-10T07:21:49.233Z,886.20
2019-03-10T07:22:49.220Z,886.15
2019-03-10T07:23:49.206Z,886.13
2019-03-10T07:24:49.190Z,886.10
2019-03-10T07:25:49.169Z,886.04
2019-03-10T07:26:49.156Z,885.98
2019-03-10T07:27:49.142Z,885.96
2019-03-10T07:28:49.126Z,885.93
2019-03-10T07:29:49.114Z,885.89
2019-03-10T07:30:49.093Z,885.82
2019-03-10T07:31:49.076Z,885.79
2019-03-10T07:32:49.061Z,885.78
2019-03-10T07:33:49.103Z,885.79
2019-03-10T07:34:49.029Z,885.76
2019-03-10T07:35:49.008Z,885.71
2019-03-10T07:36:48.992Z,885.66
2019-03-10T07:37:48.986Z,885.63
2019-03-10T07:38:48.962Z,885.58
2019-03-10T07:39:48.950Z,885.49
2019-03-10T07:40:48.929Z,885.46
2019-03-10T07:41:48.917Z,885.38
2019-03-10T07:42:48.905Z,885.37
2019-03-10T07:43:48.889Z,885.36
2019-03-10T07:44:48.871Z,885.36
2019-03-10T07:45:48.856Z,885.36
2019-03-10T07:46:48.842Z,885.34
2019-03-10T07:47:48.828Z,885.29
2019-03-10T07:48:48.809Z,885.32
2019-03-10T07:49:48.793Z,885.27
2019-03-10T07:50:48.778Z,885.31
2019-03-10T07:51:48.764Z,885.31
2019-03-10T07:52:48.748Z,885.38
2019-03-10T07:53:48.736Z,885.40
2019-03-10T07:54:48.718Z,885.45
2019-03-10T07:55:48.709Z,885.46
2019-03-10T07:56:48.686Z,885.45
2019-03-10T07:57:48.701Z,885.42
2019-03-10T07:58:48.660Z,885.43
2019-03-10T07:59:48.645Z,885.45
2019-03-10T08:00:48.625Z,885.48
2019-03-10T08:01:48.610Z,885.46
2019-03-10T08:02:48.596Z,885.51
2019-03-10T08:03:48.582Z,885.52
2019-03-10T08:04:48.564Z,885.54
2019-03-10T08:05:48.549Z,885.55
2019-03-10T08:06:48.533Z,885.57
2019-03-10T08:07:48.517Z,885.56
2019-03-10T08:08:48.502Z,885.59
2019-03-10T08:09:48.488Z,885.64
2019-03-10T08:10:48.477Z,885.70
2019-03-10T08:11:48.461Z,885.71
2019-03-10T08:12:48.447Z,885.69
2019-03-10T08:13:48.435Z,885.70
2019-03-10T08:14:48.414Z,885.68
2019-03-10T08:15:48.401Z,885.69
2019-03-10T08:16:48.380Z,885.67
2019-03-10T08:17:48.369Z,885.65
2019-03-10T08:18:48.353Z,885.68
2019-03-10T08:19:48.331Z,885.71
2019-03-10T08:20:48.321Z,885.76
2019-03-10T08:21:48.309Z,885.77
2019-03-10T08:22:48.290Z,885.78
2019-03-10T08:23:48.278Z,885.76
2019-03-10T08:24:48.264Z,885.70
2019-03-10T08:25:48.247Z,885.69
2019-03-10T08:26:48.232Z,885.70
2019-03-10T08:27:48.221Z,885.65
2019-03-10T08:28:48.216Z,885.67
2019-03-10T08:29:48.191Z,885.71
2019-03-10T08:30:48.197Z,885.72
2019-03-10T08:31:48.156Z,885.79
2019-03-10T08:32:48.145Z,885.84
2019-03-10T08:33:48.124Z,885.91
2019-03-10T08:34:48.127Z,885.96
2019-03-10T08:35:48.091Z,886.02
2019-03-10T08:36:48.089Z,886.01
2019-03-10T08:37:48.067Z,886.04
2019-03-10T08:38:48.054Z,886.07
2019-03-10T08:39:48.037Z,886.13
2019-03-10T08:40:48.022Z,886.20
2019-03-10T08:41:48.010Z,886.21
2019-03-10T08:42:49.671Z,886.22
2019-03-10T08:43:47.971Z,886.27
2019-03-10T08:44:47.967Z,886.29
2019-03-10T08:45:47.954Z,886.37
2019-03-10T08:46:47.946Z,886.45
2019-03-10T08:47:47.918Z,886.46
2019-03-10T08:48:47.900Z,886.45
2019-03-10T08:49:47.893Z,886.46
2019-03-10T08:50:47.875Z,886.46
2019-03-10T08:51:47.857Z,886.62
2019-03-10T08:52:47.848Z,886.69
2019-03-10T08:53:47.836Z,886.74
2019-03-10T08:54:47.818Z,886.80
2019-03-10T08:55:47.802Z,886.78
2019-03-10T08:56:47.785Z,886.73
2019-03-10T08:57:47.770Z,886.72
2019-03-10T08:58:47.760Z,886.65
2019-03-10T08:59:47.743Z,886.73
2019-03-10T09:00:47.732Z,886.76
2019-03-10T09:01:47.721Z,886.80
2019-03-10T09:02:47.700Z,886.85
2019-03-10T09:03:47.686Z,886.79
2019-03-10T09:04:47.668Z,886.69
2019-03-10T09:05:47.656Z,886.60
2019-03-10T09:06:47.694Z,886.59
2019-03-10T09:07:47.628Z,886.61
2019-03-10T09:08:47.608Z,886.60
2019-03-10T09:09:47.594Z,886.53
2019-03-10T09:10:47.595Z,886.52
2019-03-10T09:11:47.571Z,886.44
2019-03-10T09:12:47.555Z,886.41
2019-03-10T09:13:47.536Z,886.35
2019-03-10T09:14:47.523Z,886.34
2019-03-10T09:15:47.509Z,886.31
2019-03-10T09:16:47.495Z,886.26
2019-03-10T09:17:47.496Z,886.28
2019-03-10T09:18:47.469Z,886.27
2019-03-10T09:19:47.446Z,886.26
2019-03-10T09:20:47.439Z,886.31
2019-03-10T09:21:47.423Z,886.32
2019-03-10T09:22:47.403Z,886.31
2019-03-10T09:23:47.386Z,886.31
2019-03-10T09:24:47.388Z,886.23
2019-03-10T09:25:47.361Z,886.21
2019-03-10T09:26:47.351Z,886.24
2019-03-10T09:27:47.333Z,886.18
2019-03-10T09:28:47.313Z,886.22
2019-03-10T09:29:47.344Z,886.22
2019-03-10T09:30:47.298Z,886.19
2019-03-10T09:31:47.271Z,886.22
2019-03-10T09:32:47.274Z,886.22
2019-03-10T09:33:49.798Z,886.21
2019-03-10T09:34:47.228Z,886.22
2019-03-10T09:35:47.213Z,886.24
2019-03-10T09:36:47.204Z,886.28
2019-03-10T09:37:47.187Z,886.28
2019-03-10T09:38:47.164Z,886.29
2019-03-10T09:39:47.151Z,886.32
2019-03-10T09:40:47.139Z,886.30
2019-03-10T09:41:47.127Z,886.29
2019-03-10T09:42:47.110Z,886.28
2019-03-10T09:43:47.091Z,886.23
2019-03-10T09:44:47.082Z,886.21
2019-03-10T09:45:47.061Z,886.24
2019-03-10T09:46:47.050Z,886.20
2019-03-10T09:47:47.035Z,886.24
2019-03-10T09:48:47.020Z,886.28
2019-03-10T09:49:47.004Z,886.28
2019-03-10T09:50:46.992Z,886.28
2019-03-10T09:51:46.976Z,886.25
2019-03-10T09:52:46.963Z,886.23
2019-03-10T09:53:46.952Z,886.16
2019-03-10T09:54:46.930Z,886.15
2019-03-10T09:55:46.918Z,886.12
2019-03-10T09:56:46.900Z,886.16
2019-03-10T09:57:46.945Z,886.16
2019-03-10T09:58:46.871Z,886.16
2019-03-10T09:59:46.851Z,886.19
2019-03-10T10:00:46.837Z,886.20
2019-03-10T10:01:46.831Z,886.15
2019-03-10T10:02:46.816Z,886.17
2019-03-10T10:03:46.802Z,886.11
2019-03-10T10:04:46.782Z,886.14
2019-03-10T10:05:46.764Z,886.05
2019-03-10T10:06:46.750Z,886.03
2019-03-10T10:07:46.731Z,885.90
2019-03-10T10:08:46.725Z,885.84
2019-03-10T10:09:46.715Z,885.78
2019-03-10T10:10:46.697Z,885.73
2019-03-10T10:11:46.681Z,885.66
2019-03-10T10:12:46.661Z,885.68
2019-03-10T10:13:46.647Z,885.64
2019-03-10T10:14:48.598Z,885.62
2019-03-10T10:15:46.625Z,885.57
2019-03-10T10:16:46.602Z,885.51
2019-03-10T10:17:46.585Z,885.36
2019-03-10T10:18:46.581Z,885.34
2019-03-10T10:19:46.556Z,885.40
2019-03-10T10:20:46.549Z,885.41
2019-03-10T10:21:46.536Z,885.32
2019-03-10T10:22:46.521Z,885.25
2019-03-10T10:23:46.501Z,885.22
2019-03-10T10:24:46.490Z,885.18
2019-03-10T10:25:46.472Z,885.18
2019-03-10T10:26:46.459Z,885.15
2019-03-10T10:27:46.445Z,885.15
2019-03-10T10:28:46.423Z,885.18
2019-03-10T10:29:46.410Z,885.16
2019-03-10T10:30:46.401Z,885.11
2019-03-10T10:31:46.384Z,885.13
2019-03-10T10:32:46.368Z,885.07
2019-03-10T10:33:46.355Z,885.07
2019-03-10T10:34:46.342Z,885.05
2019-03-10T10:35:46.324Z,885.06
2019-03-10T10:36:46.311Z,885.04
2019-03-10T10:37:46.299Z,885.05
2019-03-10T10:38:46.281Z,885.05
2019-03-10T10:39:46.262Z,885.09
2019-03-10T10:40:46.255Z,885.01
2019-03-10T10:41:46.240Z,884.98
2019-03-10T10:42:46.219Z,885.00
2019-03-10T10:43:46.203Z,884.99
2019-03-10T10:44:46.201Z,885.04
2019-03-10T10:45:46.178Z,885.03
2019-03-10T10:46:46.160Z,885.06
2019-03-10T10:47:46.155Z,884.98
2019-03-10T10:48:46.156Z,884.95
2019-03-10T10:49:46.154Z,884.93
2019-03-10T10:50:46.119Z,884.86
2019-03-10T10:51:46.095Z,884.78
2019-03-10T10:52:46.076Z,884.72
2019-03-10T10:53:46.068Z,884.69
2019-03-10T10:54:46.055Z,884.72
2019-03-10T10:55:46.035Z,884.75
2019-03-10T10:56:46.020Z,884.77
2019-03-10T10:57:46.005Z,884.75
2019-03-10T10:58:45.993Z,884.67
2019-03-10T10:59:45.972Z,884.65
2019-03-10T11:00:45.961Z,884.67
2019-03-10T11:01:45.944Z,884.62
2019-03-10T11:02:45.933Z,884.64
2019-03-10T11:03:45.918Z,884.55
2019-03-10T11:04:45.905Z,884.58
2019-03-10T11:05:45.890Z,884.46
2019-03-10T11:06:45.871Z,884.48
2019-03-10T11:07:45.869Z,884.41
2019-03-10T11:08:45.850Z,884.33
2019-03-10T11:09:45.836Z,884.34
2019-03-10T11:10:45.817Z,884.40
2019-03-10T11:11:45.804Z,884.36
2019-03-10T11:12:45.792Z,884.29
2019-03-10T11:13:45.775Z,884.24
2019-03-10T11:14:45.764Z,884.24
2019-03-10T11:15:45.746Z,884.26
2019-03-10T11:16:45.738Z,884.22
2019-03-10T11:17:45.719Z,884.20
2019-03-10T11:18:45.703Z,884.21
2019-03-10T11:19:45.687Z,884.20
2019-03-10T11:20:45.675Z,884.19
2019-03-10T11:21:45.666Z,884.18
2019-03-10T11:22:45.650Z,884.15
2019-03-10T11:23:45.641Z,884.17
2019-03-10T11:24:45.627Z,884.19
2019-03-10T11:25:45.610Z,884.23
2019-03-10T11:26:45.602Z,884.12
2019-03-10T11:27:45.580Z,884.08
2019-03-10T11:28:45.573Z,884.14
2019-03-10T11:29:45.554Z,884.13
2019-03-10T11:30:45.540Z,884.22
2019-03-10T11:31:45.530Z,884.22
2019-03-10T11:32:45.515Z,884.30
2019-03-10T11:33:45.501Z,884.24
2019-03-10T11:34:45.483Z,884.12
2019-03-10T11:35:45.474Z,884.05
2019-03-10T11:36:45.461Z,883.99
2019-03-10T11:37:45.442Z,883.97
2019-03-10T11:38:45.437Z,883.93
2019-03-10T11:39:45.420Z,883.97
2019-03-10T11:40:45.412Z,883.94
2019-03-10T11:41:45.399Z,883.99
2019-03-10T11:42:45.383Z,883.98
2019-03-10T11:43:45.375Z,883.94
2019-03-10T11:44:45.355Z,883.90
2019-03-10T11:45:45.346Z,883.80
2019-03-10T11:46:45.338Z,883.72
2019-03-10T11:47:45.319Z,883.80
2019-03-10T11:48:45.310Z,883.79
2019-03-10T11:49:45.298Z,883.81
2019-03-10T11:50:45.288Z,883.78
2019-03-10T11:51:45.271Z,883.82
2019-03-10T11:52:45.258Z,883.71
2019-03-10T11:53:45.263Z,883.70
2019-03-10T11:54:45.248Z,883.67
2019-03-10T11:55:45.222Z,883.60
2019-03-10T11:56:45.206Z,883.53
2019-03-10T11:57:45.259Z,883.53
2019-03-10T11:58:45.179Z,883.52
2019-03-10T11:59:45.169Z,883.46
2019-03-10T12:00:45.159Z,883.39
2019-03-10T12:01:45.148Z,883.34
2019-03-10T12:02:45.138Z,883.35
2019-03-10T12:03:45.122Z,883.30
2019-03-10T12:04:45.108Z,883.30
2019-03-10T12:05:45.099Z,883.30
2019-03-10T12:06:45.088Z,883.36
2019-03-10T12:07:45.073Z,883.18
2019-03-10T12:08:45.060Z,883.15
2019-03-10T12:09:45.049Z,883.22
2019-03-10T12:10:45.031Z,883.33
2019-03-10T12:11:45.027Z,883.29
2019-03-10T12:12:45.010Z,883.35
2019-03-10T12:13:45.000Z,883.37
2019-03-10T12:14:44.990Z,883.41
2019-03-10T12:15:44.979Z,883.35
2019-03-10T12:16:44.965Z,883.33
2019-03-10T12:17:44.952Z,883.26
2019-03-10T12:18:44.944Z,883.21
2019-03-10T12:19:44.930Z,883.23
2019-03-10T12:20:44.915Z,883.25
2019-03-10T12:21:44.906Z,883.28
2019-03-10T12:22:44.897Z,883.29
2019-03-10T12:23:44.883Z,883.26
2019-03-10T12:24:44.869Z,883.26
2019-03-10T12:25:44.855Z,883.29
2019-03-10T12:26:44.843Z,883.38
2019-03-10T12:27:44.830Z,883.35
2019-03-10T12:28:44.820Z,883.32